Time;durP1;ratioP1;P1;durP2;ratioP2;P2;SDS_P1;SDS_P2;PMS_P1;PMS_P2;Temp;Humidity;BMP_temperature;BMP_pressure;BME280_temperature;BME280_humidity;BME280_pressure;Samples;Min_cycle;Max_cycle;Signal;HPM_P1;HPM_P2
2021/01/27 00:01:01;;;;;;;11.33;9.20;;;6.70;93.50;;;;;;5061449;28;20179;-76
2021/01/27 00:03:27;;;;;;;10.67;8.87;;;6.70;93.30;;;;;;5060007;28;20697;-76
2021/01/27 00:05:53;;;;;;;9.07;8.17;;;6.80;93.20;;;;;;5060725;28;20314;-76
2021/01/27 00:08:21;;;;;;;8.80;8.00;;;6.70;92.90;;;;;;5060950;28;20235;-76
2021/01/27 00:10:47;;;;;;;8.45;7.65;;;6.80;93.00;;;;;;5065463;28;20412;-79
2021/01/27 00:13:16;;;;;;;9.43;8.20;;;6.70;92.80;;;;;;5069663;28;20347;-77
2021/01/27 00:15:43;;;;;;;9.57;8.57;;;6.70;92.80;;;;;;5072302;28;20206;-77
2021/01/27 00:18:12;;;;;;;10.07;8.27;;;6.70;92.60;;;;;;5071303;28;20208;-79
2021/01/27 00:20:38;;;;;;;8.40;7.57;;;6.60;92.70;;;;;;5070622;28;20173;-78
2021/01/27 00:23:04;;;;;;;9.20;8.30;;;6.70;92.80;;;;;;5072089;28;20691;-78
2021/01/27 00:25:33;;;;;;;8.73;7.93;;;6.70;92.90;;;;;;5069867;28;20434;-77
2021/01/27 00:28:00;;;;;;;9.20;7.77;;;6.70;92.80;;;;;;5052479;28;20438;-78
2021/01/27 00:30:29;;;;;;;9.73;8.30;;;6.80;92.80;;;;;;5050873;28;20417;-78
2021/01/27 00:32:56;;;;;;;9.57;8.67;;;6.80;92.70;;;;;;5020372;28;20484;-78
2021/01/27 00:35:29;;;;;;;8.40;7.60;;;6.80;92.40;;;;;;5031125;28;20423;-78
2021/01/27 00:37:56;;;;;;;8.00;7.20;;;6.80;92.30;;;;;;5031785;28;20167;-78
2021/01/27 00:40:23;;;;;;;8.13;7.32;;;6.80;92.20;;;;;;5046359;28;20845;-78
2021/01/27 00:42:49;;;;;;;8.32;6.90;;;6.80;91.90;;;;;;5051797;28;20189;-78
2021/01/27 00:45:15;;;;;;;7.53;6.83;;;6.80;91.60;;;;;;5033056;28;20233;-77
2021/01/27 00:47:41;;;;;;;8.75;6.70;;;6.70;91.20;;;;;;5013868;28;20859;-78
2021/01/27 00:50:08;;;;;;;9.30;6.90;;;6.70;91.30;;;;;;5031484;28;20258;-80
2021/01/27 00:52:34;;;;;;;8.00;7.30;;;6.70;91.10;;;;;;5024341;28;20179;-78
2021/01/27 00:55:00;;;;;;;7.03;6.30;;;6.60;91.20;;;;;;5033930;28;20936;-78
2021/01/27 00:57:25;;;;;;;6.87;6.20;;;6.60;91.30;;;;;;5023065;28;20269;-78
2021/01/27 00:59:51;;;;;;;6.60;6.00;;;6.60;91.30;;;;;;5039855;28;20269;-78
2021/01/27 01:02:17;;;;;;;7.07;6.50;;;6.60;91.30;;;;;;5021250;28;20170;-78
2021/01/27 01:04:42;;;;;;;6.90;6.30;;;6.60;91.40;;;;;;5040803;28;20182;-78
2021/01/27 01:07:08;;;;;;;7.90;7.10;;;6.60;91.30;;;;;;5038947;28;20202;-79
2021/01/27 01:09:34;;;;;;;6.40;5.80;;;6.60;91.00;;;;;;5040445;28;20525;-78
2021/01/27 01:12:00;;;;;;;7.03;6.40;;;6.60;91.00;;;;;;5025470;28;20191;-78
2021/01/27 01:14:26;;;;;;;6.70;6.10;;;6.60;90.70;;;;;;5016618;28;21131;-78
2021/01/27 01:16:52;;;;;;;6.17;5.57;;;6.50;90.70;;;;;;5021266;28;20195;-78
2021/01/27 01:19:18;;;;;;;6.75;6.15;;;6.50;90.40;;;;;;5040233;28;20432;-78
2021/01/27 01:21:43;;;;;;;6.90;6.10;;;6.50;90.40;;;;;;5040522;28;20539;-78
2021/01/27 01:24:09;;;;;;;8.43;6.17;;;6.50;90.40;;;;;;5038512;28;20172;-79
2021/01/27 01:26:35;;;;;;;6.20;5.65;;;6.50;90.20;;;;;;5017165;28;20225;-78
2021/01/27 01:29:01;;;;;;;6.43;5.83;;;6.40;90.00;;;;;;5058336;28;20185;-79
2021/01/27 01:31:27;;;;;;;8.52;6.10;;;6.40;90.30;;;;;;5058527;28;20521;-79
2021/01/27 01:33:52;;;;;;;6.10;5.60;;;6.40;90.30;;;;;;5040805;28;20285;-79
2021/01/27 01:36:18;;;;;;;6.67;6.07;;;6.50;90.30;;;;;;5057891;28;20249;-79
2021/01/27 01:38:45;;;;;;;5.63;5.13;;;6.50;90.00;;;;;;5060441;28;20174;-79
2021/01/27 01:41:11;;;;;;;7.05;5.70;;;6.50;89.80;;;;;;5059204;28;20204;-79
2021/01/27 01:43:39;;;;;;;5.47;5.03;;;6.40;89.30;;;;;;5061429;28;20174;-79
2021/01/27 01:46:18;;;;;;;6.10;5.50;;;6.50;89.50;;;;;;5070171;28;20208;-80
2021/01/27 01:49:07;;;;;;;6.72;5.90;;;6.60;89.60;;;;;;5059353;28;20189;-79
2021/01/27 01:51:38;;;;;;;6.78;6.10;;;6.60;89.30;;;;;;5052140;28;20192;-79
2021/01/27 01:54:11;;;;;;;6.40;5.80;;;6.70;89.30;;;;;;5062809;28;20260;-79
2021/01/27 01:56:40;;;;;;;9.02;6.43;;;6.70;88.40;;;;;;5073514;28;20738;-78
2021/01/27 01:59:10;;;;;;;6.57;5.97;;;6.70;87.90;;;;;;5074681;28;20218;-79
2021/01/27 02:01:35;;;;;;;6.70;6.15;;;6.60;87.30;;;;;;5074600;28;20165;-79
2021/01/27 02:04:02;;;;;;;6.47;5.87;;;6.50;87.00;;;;;;5073425;28;20227;-79
2021/01/27 02:06:28;;;;;;;7.45;5.80;;;6.50;88.60;;;;;;5071525;28;20498;-79
2021/01/27 02:08:57;;;;;;;7.90;6.53;;;6.50;88.00;;;;;;5073176;28;20652;-79
2021/01/27 02:11:50;;;;;;;8.30;6.57;;;6.60;88.00;;;;;;5072537;28;20422;-79
2021/01/27 02:14:28;;;;;;;7.40;6.80;;;6.50;87.60;;;;;;5073799;28;20400;-79
2021/01/27 02:17:06;;;;;;;7.10;6.40;;;6.60;87.70;;;;;;5074460;28;20187;-79
2021/01/27 02:20:02;;;;;;;7.43;6.72;;;6.50;87.40;;;;;;5073760;28;20594;-79
2021/01/27 02:22:36;;;;;;;7.57;6.80;;;6.50;87.60;;;;;;5073614;28;20169;-79
2021/01/27 02:25:23;;;;;;;8.50;7.80;;;6.50;88.60;;;;;;5072406;28;20227;-79
2021/01/27 02:27:59;;;;;;;8.83;7.20;;;6.40;87.50;;;;;;5072490;28;20221;-79
2021/01/27 02:30:37;;;;;;;7.50;6.75;;;6.40;87.80;;;;;;5073590;28;20415;-79
2021/01/27 02:33:38;;;;;;;7.27;6.67;;;6.40;88.10;;;;;;5074104;28;20169;-79
2021/01/27 02:36:13;;;;;;;7.65;6.95;;;6.40;88.50;;;;;;5074210;28;20852;-79
2021/01/27 02:38:54;;;;;;;7.40;6.73;;;6.40;87.90;;;;;;5073188;28;20625;-79
2021/01/27 02:41:52;;;;;;;7.45;6.75;;;6.30;87.50;;;;;;5058887;28;20412;-79
2021/01/27 02:44:23;;;;;;;6.93;6.22;;;6.30;87.80;;;;;;5052662;28;20255;-80
2021/01/27 02:46:52;;;;;;;6.80;6.25;;;6.30;87.40;;;;;;5056637;28;20626;-79
2021/01/27 02:49:31;;;;;;;7.18;6.47;;;6.40;87.20;;;;;;5072776;28;20609;-79
2021/01/27 02:52:12;;;;;;;6.55;6.05;;;6.40;86.80;;;;;;5073884;28;20165;-79
2021/01/27 02:54:42;;;;;;;7.57;6.78;;;6.20;86.50;;;;;;5073725;28;20200;-79
2021/01/27 02:57:16;;;;;;;6.13;5.63;;;6.10;86.90;;;;;;5073696;28;20185;-79
2021/01/27 02:59:49;;;;;;;6.88;6.25;;;6.10;87.00;;;;;;5056988;28;20174;-79
2021/01/27 03:02:47;;;;;;;6.63;6.03;;;6.20;87.10;;;;;;5052920;28;20173;-79
2021/01/27 03:05:20;;;;;;;6.65;6.05;;;6.20;87.00;;;;;;5053401;28;20233;-80
2021/01/27 03:07:52;;;;;;;6.97;6.38;;;6.20;86.70;;;;;;5059618;28;20227;-78
2021/01/27 03:10:23;;;;;;;6.97;6.32;;;6.10;87.00;;;;;;5071507;28;20182;-79
2021/01/27 03:12:50;;;;;;;7.13;6.45;;;6.00;87.20;;;;;;5073881;28;20248;-78
2021/01/27 03:15:17;;;;;;;7.35;6.70;;;6.00;87.60;;;;;;5072647;28;20607;-79
2021/01/27 03:17:47;;;;;;;8.30;6.85;;;6.00;87.80;;;;;;5083516;28;20208;-78
2021/01/27 03:20:31;;;;;;;7.63;6.63;;;6.00;88.20;;;;;;5085082;28;20264;-80
2021/01/27 03:23:09;;;;;;;8.13;7.32;;;5.80;88.50;;;;;;5053291;28;20170;-78
2021/01/27 03:26:06;;;;;;;7.30;6.70;;;5.90;89.30;;;;;;5052583;28;20556;-78
2021/01/27 03:28:40;;;;;;;7.75;7.05;;;5.90;89.10;;;;;;5052533;28;20272;-78
2021/01/27 03:31:06;;;;;;;7.40;6.18;;;5.90;89.10;;;;;;5052089;28;20523;-78
2021/01/27 03:33:47;;;;;;;7.53;6.80;;;5.90;89.10;;;;;;5052344;28;20182;-78
2021/01/27 03:36:15;;;;;;;9.05;6.88;;;5.90;89.10;;;;;;5052781;28;20455;-79
2021/01/27 03:38:47;;;;;;;7.18;6.45;;;6.00;89.20;;;;;;5034989;28;20280;-78
2021/01/27 03:41:28;;;;;;;7.50;6.90;;;6.00;89.60;;;;;;5052326;28;20178;-80
2021/01/27 03:44:00;;;;;;;7.22;6.53;;;6.00;89.70;;;;;;5051784;28;20189;-78
2021/01/27 03:46:51;;;;;;;7.72;6.95;;;6.00;89.90;;;;;;5050838;28;20194;-78
2021/01/27 03:49:25;;;;;;;6.93;6.32;;;5.90;90.00;;;;;;5050667;28;20200;-80
2021/01/27 03:52:07;;;;;;;7.10;6.50;;;5.80;90.20;;;;;;5052617;28;20158;-78
2021/01/27 03:54:37;;;;;;;7.50;6.88;;;5.80;90.70;;;;;;5050321;28;20182;-78
2021/01/27 03:57:16;;;;;;;6.75;6.25;;;5.90;90.80;;;;;;5051453;28;20225;-78
2021/01/27 03:59:45;;;;;;;7.30;6.55;;;5.80;90.60;;;;;;5052233;28;20173;-78
2021/01/27 04:02:18;;;;;;;7.95;7.15;;;5.70;90.60;;;;;;5053234;28;20182;-79
2021/01/27 04:04:44;;;;;;;7.90;7.10;;;5.50;91.00;;;;;;5051505;28;20305;-78
2021/01/27 04:07:10;;;;;;;7.80;7.10;;;5.50;91.20;;;;;;5052371;28;20297;-79
2021/01/27 04:09:35;;;;;;;7.40;6.80;;;5.60;91.30;;;;;;5033761;28;20408;-78
2021/01/27 04:12:02;;;;;;;6.77;6.10;;;5.60;91.30;;;;;;5050489;28;20177;-79
2021/01/27 04:14:27;;;;;;;8.10;6.60;;;5.60;91.20;;;;;;5050277;28;20172;-80
2021/01/27 04:16:53;;;;;;;8.20;7.40;;;5.40;91.30;;;;;;5054941;28;20188;-79
2021/01/27 04:19:19;;;;;;;7.33;6.63;;;5.40;91.70;;;;;;5071484;28;20261;-80
2021/01/27 04:21:44;;;;;;;7.53;6.83;;;5.50;91.60;;;;;;5068905;28;20609;-79
2021/01/27 04:24:10;;;;;;;6.40;5.90;;;5.40;91.70;;;;;;5072360;28;20203;-79
2021/01/27 04:26:36;;;;;;;7.13;5.60;;;5.60;91.80;;;;;;5062810;28;20225;-79
2021/01/27 04:29:04;;;;;;;7.57;6.90;;;5.70;91.60;;;;;;5051876;28;20177;-79
2021/01/27 04:31:30;;;;;;;7.68;7.07;;;5.60;91.60;;;;;;5051600;28;20705;-78
2021/01/27 04:33:55;;;;;;;7.13;6.47;;;5.70;91.60;;;;;;5052081;28;20550;-77
2021/01/27 04:36:21;;;;;;;6.87;6.30;;;5.60;91.50;;;;;;5051429;28;20180;-77
2021/01/27 04:38:50;;;;;;;7.53;7.03;;;5.60;91.80;;;;;;5052011;28;20256;-77
2021/01/27 04:41:16;;;;;;;8.30;6.47;;;5.50;92.00;;;;;;5035711;28;20194;-77
2021/01/27 04:43:44;;;;;;;7.72;7.00;;;5.50;92.00;;;;;;5014255;28;20170;-78
2021/01/27 04:46:23;;;;;;;6.35;5.72;;;5.50;92.20;;;;;;5031798;28;20206;-78
2021/01/27 04:49:04;;;;;;;6.22;5.60;;;5.50;92.50;;;;;;5050837;28;20193;-78
2021/01/27 04:51:36;;;;;;;6.47;5.88;;;5.60;92.40;;;;;;5051009;28;20193;-78
2021/01/27 04:54:20;;;;;;;6.88;5.05;;;5.70;92.30;;;;;;5051971;28;20227;-77
2021/01/27 04:57:01;;;;;;;6.50;6.00;;;5.40;92.30;;;;;;5051916;28;20170;-77
2021/01/27 04:59:47;;;;;;;6.40;5.80;;;5.50;93.00;;;;;;5049641;28;20170;-78
2021/01/27 05:02:27;;;;;;;5.32;4.88;;;5.60;92.90;;;;;;5051931;28;20173;-78
2021/01/27 05:05:12;;;;;;;6.88;6.30;;;5.60;92.90;;;;;;5034215;28;20172;-77
2021/01/27 05:07:44;;;;;;;5.40;4.50;;;5.50;92.90;;;;;;5050531;28;20189;-77
2021/01/27 05:10:18;;;;;;;6.75;5.05;;;5.50;93.00;;;;;;5051735;28;20178;-78
2021/01/27 05:12:53;;;;;;;5.40;4.90;;;5.60;93.30;;;;;;5051147;28;20206;-79
2021/01/27 05:15:19;;;;;;;6.10;5.53;;;5.60;93.10;;;;;;5033911;28;20188;-78
2021/01/27 05:17:47;;;;;;;5.18;4.68;;;5.60;93.30;;;;;;5051091;28;20180;-78
2021/01/27 05:20:17;;;;;;;5.95;5.07;;;5.60;93.30;;;;;;5050881;28;20232;-78
2021/01/27 05:22:43;;;;;;;7.10;5.50;;;5.50;93.40;;;;;;5050722;28;20626;-78
2021/01/27 05:25:14;;;;;;;6.82;4.70;;;5.40;93.50;;;;;;5053857;28;20201;-78
2021/01/27 05:27:41;;;;;;;7.18;6.47;;;5.40;94.00;;;;;;5067688;28;20259;-78
2021/01/27 05:30:22;;;;;;;5.72;5.25;;;5.10;94.80;;;;;;5075377;28;20169;-78
2021/01/27 05:32:56;;;;;;;5.80;5.28;;;5.20;94.60;;;;;;5075263;28;20157;-78
2021/01/27 05:35:29;;;;;;;7.85;4.80;;;4.90;94.70;;;;;;5074784;28;20190;-76
2021/01/27 05:37:58;;;;;;;5.60;5.20;;;5.00;95.10;;;;;;5075413;28;20236;-78
2021/01/27 05:40:41;;;;;;;6.07;3.95;;;5.00;95.30;;;;;;5063682;28;20265;-77
2021/01/27 05:43:25;;;;;;;5.95;4.95;;;5.10;95.30;;;;;;5053839;28;20162;-78
2021/01/27 05:45:51;;;;;;;5.65;5.15;;;5.20;95.30;;;;;;5059472;28;20224;-78
2021/01/27 05:48:40;;;;;;;5.15;4.65;;;4.90;95.10;;;;;;5061074;28;20235;-78
2021/01/27 05:51:06;;;;;;;5.85;5.35;;;5.10;95.40;;;;;;5055157;28;20167;-77
2021/01/27 05:53:33;;;;;;;6.77;6.17;;;5.10;95.00;;;;;;5054084;28;20177;-77
2021/01/27 05:56:05;;;;;;;5.93;5.32;;;5.10;95.20;;;;;;5070446;28;20189;-77
2021/01/27 05:58:34;;;;;;;6.50;5.90;;;5.20;95.20;;;;;;5056731;28;20178;-77
2021/01/27 06:01:36;;;;;;;5.80;5.30;;;5.30;94.90;;;;;;5060117;28;20212;-78
2021/01/27 06:04:11;;;;;;;6.57;4.93;;;5.30;94.80;;;;;;5074562;28;20511;-77
2021/01/27 06:07:02;;;;;;;6.18;5.57;;;5.00;95.00;;;;;;5065363;28;20224;-77
2021/01/27 06:09:40;;;;;;;5.40;4.90;;;5.00;95.60;;;;;;5055068;28;20180;-77
2021/01/27 06:12:21;;;;;;;5.30;4.90;;;5.10;95.40;;;;;;5054704;28;20181;-78
2021/01/27 06:14:48;;;;;;;4.90;4.50;;;5.10;95.30;;;;;;5060289;28;20184;-78
2021/01/27 06:17:26;;;;;;;6.20;5.60;;;5.10;95.30;;;;;;5073111;28;20208;-77
2021/01/27 06:20:16;;;;;;;5.38;4.97;;;5.10;95.30;;;;;;5065582;28;20178;-78
2021/01/27 06:23:19;;;;;;;5.93;5.40;;;5.10;95.30;;;;;;5052762;28;20169;-77
2021/01/27 06:26:17;;;;;;;4.93;3.58;;;5.20;95.30;;;;;;5051670;28;20336;-78
2021/01/27 06:29:02;;;;;;;7.80;4.80;;;5.20;95.20;;;;;;5033387;28;20561;-78
2021/01/27 06:31:50;;;;;;;4.60;4.28;;;5.20;95.20;;;;;;5043234;28;20276;-77
2021/01/27 06:34:25;;;;;;;5.13;4.65;;;5.00;95.60;;;;;;5033943;28;20166;-78
2021/01/27 06:37:19;;;;;;;6.07;5.13;;;5.20;95.60;;;;;;5043205;28;20185;-78
2021/01/27 06:40:22;;;;;;;5.43;4.93;;;5.20;95.50;;;;;;5004174;28;20178;-78
2021/01/27 06:43:16;;;;;;;6.20;4.80;;;5.10;95.30;;;;;;5046276;28;20193;-77
2021/01/27 06:46:08;;;;;;;5.53;4.97;;;5.10;95.70;;;;;;5035191;28;20193;-78
2021/01/27 06:48:39;;;;;;;4.90;4.53;;;5.10;95.70;;;;;;5051404;28;20236;-78
2021/01/27 06:51:25;;;;;;;3.90;3.60;;;5.10;95.80;;;;;;5016481;28;20524;-78
2021/01/27 06:54:30;;;;;;;4.97;4.47;;;5.00;95.80;;;;;;5033959;28;20189;-78
2021/01/27 06:57:40;;;;;;;4.57;4.25;;;5.10;96.00;;;;;;4945989;28;20597;-78
2021/01/27 07:00:13;;;;;;;4.60;4.20;;;5.30;95.90;;;;;;4945982;29;20188;-78
2021/01/27 07:02:59;;;;;;;4.43;4.20;;;5.20;95.40;;;;;;4952228;29;20181;-77
2021/01/27 07:06:00;;;;;;;4.80;4.40;;;4.80;96.00;;;;;;5002250;28;20214;-77
2021/01/27 07:08:53;;;;;;;4.93;4.10;;;4.90;96.50;;;;;;5050754;28;20235;-74
2021/01/27 07:11:25;;;;;;;6.40;5.55;;;5.10;96.10;;;;;;5046765;28;20171;-77
2021/01/27 07:14:08;;;;;;;7.38;5.22;;;4.90;95.90;;;;;;5035126;28;20173;-75
2021/01/27 07:17:01;;;;;;;5.60;5.10;;;4.90;96.50;;;;;;5047955;28;20174;-75
2021/01/27 07:19:44;;;;;;;6.32;5.72;;;5.00;96.50;;;;;;5033285;28;20193;-75
2021/01/27 07:22:30;;;;;;;5.22;4.85;;;5.00;96.10;;;;;;5033321;28;20182;-74
2021/01/27 07:25:36;;;;;;;5.45;4.95;;;5.10;96.10;;;;;;5046846;28;20212;-75
2021/01/27 07:28:11;;;;;;;5.10;4.70;;;5.00;96.40;;;;;;5043549;28;20247;-76
2021/01/27 07:30:57;;;;;;;5.07;4.68;;;5.40;98.20;;;;;;5052349;28;20582;-76
2021/01/27 07:33:51;;;;;;;5.20;4.80;;;6.00;99.40;;;;;;5053201;28;20170;-75
2021/01/27 07:36:36;;;;;;;5.30;4.90;;;6.30;95.40;;;;;;5060766;28;20169;-75
2021/01/27 07:39:09;;;;;;;5.82;5.18;;;6.30;94.10;;;;;;5070929;28;20181;-76
2021/01/27 07:41:48;;;;;;;5.60;5.20;;;6.20;93.80;;;;;;5060735;28;20243;-75
2021/01/27 07:44:17;;;;;;;5.65;5.18;;;6.20;94.50;;;;;;5073145;28;20231;-75
2021/01/27 07:47:04;;;;;;;6.60;5.10;;;6.30;94.50;;;;;;5059372;28;20201;-75
2021/01/27 07:49:51;;;;;;;4.63;4.13;;;6.40;94.20;;;;;;5064421;28;20176;-79
2021/01/27 07:52:26;;;;;;;4.87;4.47;;;7.20;99.90;;;;;;5062507;28;20419;-86
2021/01/27 07:55:08;;;;;;;4.77;4.40;;;7.40;94.70;;;;;;5063818;28;20619;-79
2021/01/27 07:58:06;;;;;;;5.50;5.18;;;7.00;92.60;;;;;;5051660;28;20418;-73
2021/01/27 08:00:54;;;;;;;6.17;5.67;;;6.80;92.90;;;;;;5062633;28;20193;-73
2021/01/27 08:03:32;;;;;;;6.05;5.55;;;6.60;93.40;;;;;;5090254;28;20811;-74
2021/01/27 08:06:20;;;;;;;5.45;5.05;;;6.30;93.80;;;;;;5071549;28;20601;-73
2021/01/27 08:09:03;;;;;;;5.28;4.88;;;6.20;94.80;;;;;;5052344;28;20165;-74
2021/01/27 08:11:33;;;;;;;4.97;4.60;;;6.10;95.20;;;;;;5071746;28;20180;-74
2021/01/27 08:14:00;;;;;;;4.55;4.25;;;6.10;95.50;;;;;;5052172;28;20573;-74
2021/01/27 08:16:30;;;;;;;4.70;4.30;;;6.00;95.40;;;;;;5050441;28;20324;-74
2021/01/27 08:19:11;;;;;;;4.35;3.97;;;6.00;95.60;;;;;;5069193;28;20280;-78
2021/01/27 08:21:46;;;;;;;5.38;4.95;;;5.90;95.90;;;;;;5053530;28;20528;-77
2021/01/27 08:24:33;;;;;;;4.88;4.57;;;5.80;95.60;;;;;;5061693;28;20208;-78
2021/01/27 08:27:17;;;;;;;4.78;4.53;;;5.70;96.30;;;;;;5050398;28;20928;-78
2021/01/27 08:29:54;;;;;;;5.18;4.78;;;5.70;96.40;;;;;;5039982;28;20187;-79
2021/01/27 08:32:43;;;;;;;5.40;4.63;;;5.80;96.40;;;;;;5039761;28;20193;-75
2021/01/27 08:35:32;;;;;;;5.03;4.63;;;5.80;96.30;;;;;;5039252;28;20162;-74
2021/01/27 08:38:27;;;;;;;4.63;4.38;;;5.80;96.40;;;;;;5001993;28;20264;-74
2021/01/27 08:40:53;;;;;;;4.47;4.18;;;5.80;96.70;;;;;;5039673;28;20178;-74
2021/01/27 08:43:24;;;;;;;4.13;3.83;;;5.80;96.80;;;;;;5019276;28;20170;-74
2021/01/27 08:45:50;;;;;;;4.53;4.22;;;5.70;96.80;;;;;;5024035;28;21069;-73
2021/01/27 08:48:47;;;;;;;4.53;4.23;;;5.80;97.30;;;;;;5037415;28;20186;-73
2021/01/27 08:51:43;;;;;;;4.45;4.18;;;5.60;96.60;;;;;;5031764;28;20186;-73
2021/01/27 08:54:28;;;;;;;4.75;4.45;;;5.50;96.90;;;;;;5031635;28;20220;-73
2021/01/27 08:57:15;;;;;;;4.50;4.20;;;5.50;97.30;;;;;;5027483;28;20201;-74
2021/01/27 09:00:04;;;;;;;4.43;4.13;;;5.60;97.30;;;;;;5036209;28;20186;-74
2021/01/27 09:02:54;;;;;;;4.22;4.00;;;5.60;97.30;;;;;;5028302;28;20592;-74
2021/01/27 09:05:40;;;;;;;3.70;3.40;;;5.70;97.60;;;;;;5036868;28;20258;-73
2021/01/27 09:08:12;;;;;;;4.40;4.10;;;5.60;97.20;;;;;;5046685;28;20179;-73
2021/01/27 09:10:44;;;;;;;3.55;3.35;;;5.70;97.70;;;;;;5035449;28;20513;-72
2021/01/27 09:13:48;;;;;;;3.30;3.10;;;5.70;97.40;;;;;;5036016;28;20185;-72
2021/01/27 09:16:29;;;;;;;3.83;3.58;;;5.70;97.50;;;;;;4955499;29;20590;-73
2021/01/27 09:18:58;;;;;;;3.70;3.50;;;5.70;97.40;;;;;;4956330;28;20657;-73
2021/01/27 09:21:25;;;;;;;4.07;3.78;;;5.80;97.40;;;;;;5010005;28;20189;-73
2021/01/27 09:24:22;;;;;;;3.75;3.45;;;5.80;97.30;;;;;;5034463;28;20361;-73
2021/01/27 09:26:50;;;;;;;4.20;3.90;;;5.90;97.30;;;;;;4988303;28;20234;-74
2021/01/27 09:29:28;;;;;;;3.63;3.40;;;5.90;97.00;;;;;;5054567;28;20554;-73
2021/01/27 09:31:56;;;;;;;3.42;3.30;;;6.00;96.90;;;;;;5053180;28;20182;-73
2021/01/27 09:34:32;;;;;;;3.42;3.22;;;6.00;96.50;;;;;;5070545;28;20177;-74
2021/01/27 09:37:01;;;;;;;3.28;3.08;;;6.00;96.60;;;;;;5075060;28;20181;-75
2021/01/27 09:39:33;;;;;;;2.90;2.70;;;6.00;96.70;;;;;;5074800;28;20173;-75
2021/01/27 09:42:13;;;;;;;2.85;2.65;;;6.10;96.60;;;;;;5075257;28;20256;-75
2021/01/27 09:44:40;;;;;;;3.80;3.60;;;6.00;96.40;;;;;;5074267;28;20530;-75
2021/01/27 09:47:08;;;;;;;3.50;3.30;;;6.00;96.50;;;;;;5070031;28;20202;-75
2021/01/27 09:49:39;;;;;;;3.00;2.90;;;6.10;96.60;;;;;;5054531;28;20210;-75
2021/01/27 09:52:08;;;;;;;3.05;2.95;;;6.10;96.60;;;;;;5055106;28;20162;-75
2021/01/27 09:54:35;;;;;;;3.00;2.88;;;6.00;96.60;;;;;;5053415;28;20505;-75
2021/01/27 09:57:03;;;;;;;4.07;3.88;;;5.90;96.80;;;;;;5055258;28;20206;-75
2021/01/27 09:59:30;;;;;;;3.17;3.03;;;5.90;96.90;;;;;;5055209;28;20174;-75
2021/01/27 10:01:56;;;;;;;2.90;2.80;;;5.90;96.80;;;;;;5064131;28;20173;-72
2021/01/27 10:04:35;;;;;;;3.23;3.13;;;5.90;96.90;;;;;;5073347;28;20706;-73
2021/01/27 10:07:29;;;;;;;3.20;3.00;;;5.90;97.10;;;;;;5054258;28;20336;-75
2021/01/27 10:10:16;;;;;;;3.10;2.90;;;5.90;97.00;;;;;;5051124;28;20195;-75
2021/01/27 10:12:44;;;;;;;2.95;2.85;;;5.90;97.00;;;;;;5054296;28;20166;-75
2021/01/27 10:15:31;;;;;;;3.20;3.00;;;5.90;97.00;;;;;;5054600;28;20269;-75
2021/01/27 10:18:19;;;;;;;3.67;3.38;;;6.00;97.10;;;;;;5065975;28;20177;-75
2021/01/27 10:20:46;;;;;;;3.30;3.20;;;6.00;97.30;;;;;;5074190;28;20163;-75
2021/01/27 10:23:14;;;;;;;2.90;2.80;;;5.90;97.60;;;;;;5074783;28;20528;-75
2021/01/27 10:25:41;;;;;;;3.55;3.30;;;5.90;97.80;;;;;;5074454;28;20236;-75
2021/01/27 10:28:18;;;;;;;3.63;3.47;;;6.00;98.10;;;;;;5055908;28;20222;-75
2021/01/27 10:30:51;;;;;;;3.40;3.30;;;6.10;98.20;;;;;;5053698;28;20166;-75
2021/01/27 10:33:50;;;;;;;2.63;2.50;;;6.10;98.20;;;;;;5054151;28;20158;-75
2021/01/27 10:36:39;;;;;;;3.00;2.80;;;6.00;98.30;;;;;;5054632;28;20605;-75
2021/01/27 10:39:24;;;;;;;3.05;2.85;;;6.10;98.80;;;;;;5041288;28;20235;-75
2021/01/27 10:42:10;;;;;;;2.90;2.70;;;6.20;98.80;;;;;;5053919;28;20242;-75
2021/01/27 10:44:38;;;;;;;3.80;3.60;;;6.20;98.90;;;;;;5035992;28;20186;-75
2021/01/27 10:47:10;;;;;;;3.03;2.92;;;6.20;99.00;;;;;;5049558;28;20566;-75
2021/01/27 10:49:45;;;;;;;3.58;3.33;;;6.20;99.20;;;;;;5034054;28;20196;-75
2021/01/27 10:52:26;;;;;;;3.40;3.20;;;6.10;99.20;;;;;;5034418;28;20158;-75
2021/01/27 10:54:54;;;;;;;3.83;3.58;;;6.20;99.50;;;;;;5033244;28;20202;-75
2021/01/27 10:57:20;;;;;;;3.60;3.40;;;6.20;99.40;;;;;;5034197;28;20185;-75
2021/01/27 10:59:46;;;;;;;3.63;3.43;;;6.30;99.60;;;;;;5037648;28;20261;-75
2021/01/27 11:02:12;;;;;;;3.80;3.60;;;6.20;99.40;;;;;;5053619;28;20395;-75
2021/01/27 11:04:37;;;;;;;3.70;3.50;;;6.10;99.90;;;;;;5053268;28;20436;-75
2021/01/27 11:07:03;;;;;;;3.70;3.50;;;6.20;99.90;;;;;;5053545;28;20206;-75
2021/01/27 11:09:29;;;;;;;3.40;3.20;;;6.20;99.90;;;;;;5053855;28;20613;-75
2021/01/27 11:11:55;;;;;;;3.05;2.95;;;6.30;99.80;;;;;;5053503;28;20412;-75
2021/01/27 11:14:21;;;;;;;3.70;3.50;;;6.20;99.80;;;;;;5053783;28;20177;-75
2021/01/27 11:16:47;;;;;;;3.33;3.20;;;6.30;99.90;;;;;;5033203;28;20432;-75
2021/01/27 11:19:13;;;;;;;3.90;3.70;;;6.30;99.90;;;;;;5033850;28;20224;-75
2021/01/27 11:21:39;;;;;;;3.38;3.17;;;6.40;99.90;;;;;;5032756;28;20398;-75
2021/01/27 11:24:08;;;;;;;4.07;3.78;;;6.40;99.60;;;;;;5033609;28;20626;-75
2021/01/27 11:26:35;;;;;;;4.25;3.95;;;6.20;99.90;;;;;;5033281;28;20296;-75
2021/01/27 11:29:01;;;;;;;3.50;3.30;;;6.30;99.90;;;;;;5033609;28;20167;-75
2021/01/27 11:31:28;;;;;;;3.20;3.10;;;6.30;99.90;;;;;;5033535;28;20530;-75
2021/01/27 11:33:55;;;;;;;3.03;2.83;;;6.40;99.90;;;;;;5032838;28;20603;-75
2021/01/27 11:36:22;;;;;;;2.70;2.60;;;6.40;99.90;;;;;;5033439;28;20236;-75
2021/01/27 11:38:49;;;;;;;3.40;3.20;;;6.40;99.90;;;;;;5032682;28;20678;-75
2021/01/27 11:41:16;;;;;;;3.42;3.22;;;6.40;99.90;;;;;;5033155;28;20181;-81
2021/01/27 11:43:43;;;;;;;3.40;3.30;;;6.40;99.90;;;;;;5032664;28;20178;-76
2021/01/27 11:46:16;;;;;;;3.50;3.30;;;6.30;99.90;;;;;;5033132;28;20596;-76
2021/01/27 11:48:42;;;;;;;3.38;3.17;;;6.20;99.90;;;;;;5050424;28;20350;-73
2021/01/27 11:51:09;;;;;;;3.67;3.20;;;6.20;99.90;;;;;;5053033;28;20253;-74
2021/01/27 11:53:36;;;;;;;3.92;3.63;;;6.20;99.90;;;;;;5052799;28;20224;-76
2021/01/27 11:56:02;;;;;;;3.58;3.28;;;6.20;99.90;;;;;;5050052;28;20213;-76
2021/01/27 11:58:30;;;;;;;3.70;3.40;;;6.30;99.90;;;;;;5032880;28;20209;-76
2021/01/27 12:00:57;;;;;;;3.10;2.90;;;6.30;99.90;;;;;;5046092;28;20745;-76
2021/01/27 12:03:22;;;;;;;2.80;2.70;;;6.40;99.90;;;;;;5052817;28;20601;-76
2021/01/27 12:05:48;;;;;;;3.20;3.00;;;6.40;99.90;;;;;;5051954;28;20241;-77
2021/01/27 12:08:17;;;;;;;2.60;2.40;;;6.50;99.90;;;;;;5052568;28;20533;-74
2021/01/27 12:10:45;;;;;;;2.80;2.70;;;6.50;99.90;;;;;;5034321;28;20447;-72
2021/01/27 12:13:11;;;;;;;2.85;2.65;;;6.50;99.90;;;;;;5040061;28;20182;-71
2021/01/27 12:15:37;;;;;;;3.50;3.30;;;6.50;99.90;;;;;;5052790;28;20195;-71
2021/01/27 12:18:04;;;;;;;3.67;3.20;;;6.60;99.90;;;;;;5062704;28;20415;-71
2021/01/27 12:20:30;;;;;;;3.42;2.50;;;6.60;99.90;;;;;;5073739;28;20378;-71
2021/01/27 12:22:56;;;;;;;2.67;2.50;;;6.70;99.90;;;;;;5073114;28;20408;-71
2021/01/27 12:25:22;;;;;;;3.00;2.80;;;6.70;99.90;;;;;;5072174;28;20175;-71
2021/01/27 12:27:48;;;;;;;3.20;3.10;;;6.60;99.90;;;;;;5071869;28;20466;-71
2021/01/27 12:30:14;;;;;;;3.07;2.97;;;6.60;99.90;;;;;;5066855;28;21045;-71
2021/01/27 12:32:41;;;;;;;3.20;3.10;;;6.60;99.90;;;;;;5051300;28;20182;-71
2021/01/27 12:35:08;;;;;;;3.50;3.33;;;6.70;99.90;;;;;;5052342;28;20173;-71
2021/01/27 12:37:34;;;;;;;3.30;3.20;;;6.80;99.90;;;;;;5052175;28;20433;-71
2021/01/27 12:40:00;;;;;;;3.37;3.20;;;6.80;99.90;;;;;;5051760;28;20752;-71
2021/01/27 12:42:26;;;;;;;3.90;3.60;;;6.80;99.90;;;;;;5052098;28;20180;-71
2021/01/27 12:44:52;;;;;;;3.77;3.47;;;6.80;99.90;;;;;;5051558;28;20408;-72
2021/01/27 12:47:22;;;;;;;3.50;3.30;;;6.80;99.90;;;;;;5052068;28;20204;-71
2021/01/27 12:49:48;;;;;;;3.20;3.00;;;6.80;99.90;;;;;;5051582;28;20189;-71
2021/01/27 12:52:14;;;;;;;3.58;3.40;;;6.80;99.90;;;;;;5052228;28;20400;-71
2021/01/27 12:54:40;;;;;;;3.80;3.60;;;6.90;99.90;;;;;;5051602;28;20170;-72
2021/01/27 12:57:05;;;;;;;3.50;3.30;;;6.90;99.90;;;;;;5052146;28;20437;-71
2021/01/27 12:59:31;;;;;;;3.30;3.20;;;6.90;99.90;;;;;;5052396;28;20648;-71
2021/01/27 13:01:57;;;;;;;3.20;3.00;;;7.00;99.90;;;;;;5051304;28;20178;-71
2021/01/27 13:04:23;;;;;;;3.50;3.40;;;7.00;99.90;;;;;;5052047;28;20614;-71
2021/01/27 13:06:49;;;;;;;3.70;3.50;;;7.00;99.90;;;;;;5051037;28;20457;-71
2021/01/27 13:09:14;;;;;;;3.87;3.67;;;7.10;99.90;;;;;;5034056;28;20383;-71
2021/01/27 13:11:40;;;;;;;3.83;3.63;;;7.00;99.90;;;;;;5050887;28;20609;-72
2021/01/27 13:14:06;;;;;;;3.60;3.40;;;7.10;99.90;;;;;;5051675;28;20308;-71
2021/01/27 13:16:31;;;;;;;3.63;3.43;;;7.10;99.90;;;;;;5051550;28;20309;-72
2021/01/27 13:18:58;;;;;;;3.60;3.30;;;7.10;99.90;;;;;;5051246;28;20174;-72
2021/01/27 13:21:24;;;;;;;3.50;3.30;;;7.10;99.90;;;;;;5051861;28;20178;-71
2021/01/27 13:23:49;;;;;;;3.63;3.43;;;7.00;99.90;;;;;;5050958;28;20746;-72
2021/01/27 13:26:16;;;;;;;4.10;3.90;;;7.10;99.90;;;;;;5037360;28;20704;-72
2021/01/27 13:28:42;;;;;;;5.47;5.17;;;7.10;99.90;;;;;;5071349;28;20313;-72
2021/01/27 13:31:08;;;;;;;3.50;3.30;;;7.10;99.90;;;;;;5071697;28;20473;-71
2021/01/27 13:33:34;;;;;;;7.03;3.90;;;7.10;99.90;;;;;;5071524;28;20637;-71